sensor_id;sensor_type;location;lat;lon;timestamp;pressure;altitude;pressure_sealevel;temperature;humidity
13348;BME280;6743;49.934;9.138;2022-10-16T00:01:31;100140.84;;;15.53;100.00
13348;BME280;6743;49.934;9.138;2022-10-16T00:03:58;100132.97;;;15.51;100.00
13348;BME280;6743;49.934;9.138;2022-10-16T00:06:33;100130.50;;;15.50;100.00
13348;BME280;6743;49.934;9.138;2022-10-16T00:09:01;100128.03;;;15.48;100.00
13348;BME280;6743;49.934;9.138;2022-10-16T00:11:31;100135.00;;;15.49;100.00
13348;BME280;6743;49.934;9.138;2022-10-16T00:14:00;100122.47;;;15.50;100.00
13348;BME280;6743;49.934;9.138;2022-10-16T00:16:26;100128.87;;;15.49;100.00
13348;BME280;6743;49.934;9.138;2022-10-16T00:18:54;100122.69;;;15.48;100.00
13348;BME280;6743;49.934;9.138;2022-10-16T00:21:22;100125.37;;;15.48;100.00
13348;BME280;6743;49.934;9.138;2022-10-16T00:24:09;100121.03;;;15.47;100.00
13348;BME280;6743;49.934;9.138;2022-10-16T00:26:37;100122.69;;;15.48;100.00
13348;BME280;6743;49.934;9.138;2022-10-16T00:29:07;100115.50;;;15.49;100.00
13348;BME280;6743;49.934;9.138;2022-10-16T00:31:33;100121.87;;;15.48;100.00
13348;BME280;6743;49.934;9.138;2022-10-16T00:33:59;100122.69;;;15.48;100.00
13348;BME280;6743;49.934;9.138;2022-10-16T00:36:56;100109.72;;;15.45;100.00
13348;BME280;6743;49.934;9.138;2022-10-16T00:39:25;100120.22;;;15.47;100.00
13348;BME280;6743;49.934;9.138;2022-10-16T00:41:59;100116.06;;;15.44;100.00
13348;BME280;6743;49.934;9.138;2022-10-16T00:44:48;100122.06;;;15.46;100.00
13348;BME280;6743;49.934;9.138;2022-10-16T00:47:19;100125.75;;;15.45;100.00
13348;BME280;6743;49.934;9.138;2022-10-16T00:49:48;100108.88;;;15.45;100.00
13348;BME280;6743;49.934;9.138;2022-10-16T00:52:17;100112.19;;;15.47;100.00
13348;BME280;6743;49.934;9.138;2022-10-16T00:54:44;100110.09;;;15.42;100.00
13348;BME280;6743;49.934;9.138;2022-10-16T00:57:12;100124.72;;;15.46;100.00
13348;BME280;6743;49.934;9.138;2022-10-16T00:59:53;100112.56;;;15.44;100.00
13348;BME280;6743;49.934;9.138;2022-10-16T01:02:20;100122.06;;;15.46;100.00
13348;BME280;6743;49.934;9.138;2022-10-16T01:04:48;100126.78;;;15.44;100.00
13348;BME280;6743;49.934;9.138;2022-10-16T01:07:23;100125.56;;;15.47;100.00
13348;BME280;6743;49.934;9.138;2022-10-16T01:10:00;100127.59;;;15.45;100.00
13348;BME280;6743;49.934;9.138;2022-10-16T01:12:36;100124.94;;;15.45;100.00
13348;BME280;6743;49.934;9.138;2022-10-16T01:15:10;100124.94;;;15.45;100.00
13348;BME280;6743;49.934;9.138;2022-10-16T01:17:41;100117.50;;;15.40;100.00
13348;BME280;6743;49.934;9.138;2022-10-16T01:20:13;100121.63;;;15.43;100.00
13348;BME280;6743;49.934;9.138;2022-10-16T01:22:57;100134.97;;;15.43;100.00
13348;BME280;6743;49.934;9.138;2022-10-16T01:28:22;100143.81;;;15.43;100.00
13348;BME280;6743;49.934;9.138;2022-10-16T01:30:53;100138.91;;;15.40;100.00
13348;BME280;6743;49.934;9.138;2022-10-16T01:33:22;100136.03;;;15.42;100.00
13348;BME280;6743;49.934;9.138;2022-10-16T01:35:53;100131.03;;;15.32;100.00
13348;BME280;6743;49.934;9.138;2022-10-16T01:38:25;100145.06;;;15.41;100.00
13348;BME280;6743;49.934;9.138;2022-10-16T01:41:00;100148.75;;;15.40;100.00
13348;BME280;6743;49.934;9.138;2022-10-16T01:43:31;100146.09;;;15.40;100.00
13348;BME280;6743;49.934;9.138;2022-10-16T01:46:00;100137.25;;;15.39;100.00
13348;BME280;6743;49.934;9.138;2022-10-16T01:48:28;100139.91;;;15.39;100.00
13348;BME280;6743;49.934;9.138;2022-10-16T01:50:59;100153.28;;;15.39;100.00
13348;BME280;6743;49.934;9.138;2022-10-16T01:53:27;100155.94;;;15.39;100.00
13348;BME280;6743;49.934;9.138;2022-10-16T01:55:54;100162.31;;;15.38;100.00
13348;BME280;6743;49.934;9.138;2022-10-16T01:58:22;100157.81;;;15.38;100.00
13348;BME280;6743;49.934;9.138;2022-10-16T02:00:50;100163.16;;;15.38;100.00
13348;BME280;6743;49.934;9.138;2022-10-16T02:03:18;100163.34;;;15.37;100.00
13348;BME280;6743;49.934;9.138;2022-10-16T02:05:47;100162.50;;;15.36;100.00
13348;BME280;6743;49.934;9.138;2022-10-16T02:08:14;100167.66;;;15.38;100.00
13348;BME280;6743;49.934;9.138;2022-10-16T02:10:41;100166.00;;;15.37;100.00
13348;BME280;6743;49.934;9.138;2022-10-16T02:13:10;100158.81;;;15.37;100.00
13348;BME280;6743;49.934;9.138;2022-10-16T02:15:38;100170.34;;;15.38;100.00
13348;BME280;6743;49.934;9.138;2022-10-16T02:18:05;100170.53;;;15.36;100.00
13348;BME280;6743;49.934;9.138;2022-10-16T02:20:34;100173.19;;;15.36;100.00
13348;BME280;6743;49.934;9.138;2022-10-16T02:23:03;100173.19;;;15.36;100.00
13348;BME280;6743;49.934;9.138;2022-10-16T02:25:30;100182.06;;;15.37;100.00
13348;BME280;6743;49.934;9.138;2022-10-16T02:28:01;100175.87;;;15.36;100.00
13348;BME280;6743;49.934;9.138;2022-10-16T02:30:31;100186.56;;;15.36;100.00
13348;BME280;6743;49.934;9.138;2022-10-16T02:33:00;100184.13;;;15.35;100.00
13348;BME280;6743;49.934;9.138;2022-10-16T02:35:30;100185.75;;;15.36;100.00
13348;BME280;6743;49.934;9.138;2022-10-16T02:37:57;100196.44;;;15.36;100.00
13348;BME280;6743;49.934;9.138;2022-10-16T02:40:24;100186.78;;;15.35;100.00
13348;BME280;6743;49.934;9.138;2022-10-16T02:42:52;100184.13;;;15.35;100.00
13348;BME280;6743;49.934;9.138;2022-10-16T02:45:20;100184.13;;;15.35;100.00
13348;BME280;6743;49.934;9.138;2022-10-16T02:47:46;100180.81;;;15.33;100.00
13348;BME280;6743;49.934;9.138;2022-10-16T02:50:12;100177.31;;;15.32;100.00
13348;BME280;6743;49.934;9.138;2022-10-16T02:52:39;100176.47;;;15.32;100.00
13348;BME280;6743;49.934;9.138;2022-10-16T02:55:05;100165.97;;;15.30;100.00
13348;BME280;6743;49.934;9.138;2022-10-16T02:57:31;100160.62;;;15.30;100.00
13348;BME280;6743;49.934;9.138;2022-10-16T02:59:57;100165.16;;;15.30;100.00
13348;BME280;6743;49.934;9.138;2022-10-16T03:02:23;100167.00;;;15.29;100.00
13348;BME280;6743;49.934;9.138;2022-10-16T03:04:49;100172.34;;;15.29;100.00
13348;BME280;6743;49.934;9.138;2022-10-16T03:07:15;100166.16;;;15.29;100.00
13348;BME280;6743;49.934;9.138;2022-10-16T03:09:42;100156.72;;;15.26;100.00
13348;BME280;6743;49.934;9.138;2022-10-16T03:12:08;100161.88;;;15.28;100.00
13348;BME280;6743;49.934;9.138;2022-10-16T03:14:34;100158.34;;;15.21;100.00
13348;BME280;6743;49.934;9.138;2022-10-16T03:17:00;100179.53;;;15.29;100.00
13348;BME280;6743;49.934;9.138;2022-10-16T03:19:26;100181.19;;;15.30;100.00
13348;BME280;6743;49.934;9.138;2022-10-16T03:21:52;100175.25;;;15.28;100.00
13348;BME280;6743;49.934;9.138;2022-10-16T03:24:18;100185.09;;;15.27;100.00
13348;BME280;6743;49.934;9.138;2022-10-16T03:26:44;100190.22;;;15.29;100.00
13348;BME280;6743;49.934;9.138;2022-10-16T03:29:10;100189.41;;;15.28;100.00
13348;BME280;6743;49.934;9.138;2022-10-16T03:31:36;100185.94;;;15.28;100.00
13348;BME280;6743;49.934;9.138;2022-10-16T03:34:02;100186.72;;;15.28;100.00
13348;BME280;6743;49.934;9.138;2022-10-16T03:36:28;100187.78;;;15.27;100.00
13348;BME280;6743;49.934;9.138;2022-10-16T03:38:54;100185.94;;;15.28;100.00
13348;BME280;6743;49.934;9.138;2022-10-16T03:41:20;100186.72;;;15.28;100.00
13348;BME280;6743;49.934;9.138;2022-10-16T03:43:47;100184.88;;;15.29;100.00
13348;BME280;6743;49.934;9.138;2022-10-16T03:46:13;100176.88;;;15.29;100.00
13348;BME280;6743;49.934;9.138;2022-10-16T03:48:39;100187.56;;;15.29;100.00
13348;BME280;6743;49.934;9.138;2022-10-16T03:51:05;100182.22;;;15.29;100.00
13348;BME280;6743;49.934;9.138;2022-10-16T03:53:31;100177.91;;;15.28;100.00
13348;BME280;6743;49.934;9.138;2022-10-16T03:55:57;100187.56;;;15.29;100.00
13348;BME280;6743;49.934;9.138;2022-10-16T03:58:23;100178.09;;;15.26;100.00
13348;BME280;6743;49.934;9.138;2022-10-16T04:00:50;100181.38;;;15.28;100.00
13348;BME280;6743;49.934;9.138;2022-10-16T04:03:16;100184.06;;;15.28;100.00
13348;BME280;6743;49.934;9.138;2022-10-16T04:05:44;100189.41;;;15.28;100.00
13348;BME280;6743;49.934;9.138;2022-10-16T04:08:10;100193.13;;;15.27;100.00
13348;BME280;6743;49.934;9.138;2022-10-16T04:10:36;100191.28;;;15.28;100.00
13348;BME280;6743;49.934;9.138;2022-10-16T04:13:02;100195.78;;;15.27;100.00
13348;BME280;6743;49.934;9.138;2022-10-16T04:15:28;100196.63;;;15.28;100.00
13348;BME280;6743;49.934;9.138;2022-10-16T04:17:54;100200.09;;;15.28;100.00
13348;BME280;6743;49.934;9.138;2022-10-16T04:20:20;100203.81;;;15.27;100.00
13348;BME280;6743;49.934;9.138;2022-10-16T04:22:46;100197.63;;;15.27;100.00
13348;BME280;6743;49.934;9.138;2022-10-16T04:25:12;100207.50;;;15.26;100.00
13348;BME280;6743;49.934;9.138;2022-10-16T04:27:38;100217.16;;;15.27;100.00
13348;BME280;6743;49.934;9.138;2022-10-16T04:30:06;100214.50;;;15.27;100.00
13348;BME280;6743;49.934;9.138;2022-10-16T04:32:32;100202.16;;;15.26;100.00
13348;BME280;6743;49.934;9.138;2022-10-16T04:34:58;100205.66;;;15.27;100.00
13348;BME280;6743;49.934;9.138;2022-10-16T04:37:25;100209.16;;;15.27;100.00
13348;BME280;6743;49.934;9.138;2022-10-16T04:39:51;100213.66;;;15.27;100.00
13348;BME280;6743;49.934;9.138;2022-10-16T04:42:17;100206.47;;;15.27;100.00
13348;BME280;6743;49.934;9.138;2022-10-16T04:44:43;100199.47;;;15.26;100.00
13348;BME280;6743;49.934;9.138;2022-10-16T04:47:09;100215.50;;;15.26;100.00
13348;BME280;6743;49.934;9.138;2022-10-16T04:49:35;100220.84;;;15.26;100.00
13348;BME280;6743;49.934;9.138;2022-10-16T04:52:02;100224.34;;;15.27;100.00
13348;BME280;6743;49.934;9.138;2022-10-16T04:54:28;100216.53;;;15.25;100.00
13348;BME280;6743;49.934;9.138;2022-10-16T04:56:54;100210.34;;;15.25;100.00
13348;BME280;6743;49.934;9.138;2022-10-16T04:59:20;100200.69;;;15.24;100.00
13348;BME280;6743;49.934;9.138;2022-10-16T05:01:47;100209.53;;;15.24;100.00
13348;BME280;6743;49.934;9.138;2022-10-16T05:04:13;100210.34;;;15.25;100.00
13348;BME280;6743;49.934;9.138;2022-10-16T05:06:40;100215.69;;;15.25;100.00
13348;BME280;6743;49.934;9.138;2022-10-16T05:09:08;100212.19;;;15.24;100.00
13348;BME280;6743;49.934;9.138;2022-10-16T05:11:34;100213.22;;;15.23;100.00
13348;BME280;6743;49.934;9.138;2022-10-16T05:14:00;100208.72;;;15.24;100.00
13348;BME280;6743;49.934;9.138;2022-10-16T05:16:27;100217.56;;;15.24;100.00
13348;BME280;6743;49.934;9.138;2022-10-16T05:18:53;100219.41;;;15.24;100.00
13348;BME280;6743;49.934;9.138;2022-10-16T05:21:19;100222.25;;;15.22;100.00
13348;BME280;6743;49.934;9.138;2022-10-16T05:23:45;100203.31;;;15.17;100.00
13348;BME280;6743;49.934;9.138;2022-10-16T05:26:12;100209.13;;;15.21;100.00
13348;BME280;6743;49.934;9.138;2022-10-16T05:28:38;100216.31;;;15.20;100.00
13348;BME280;6743;49.934;9.138;2022-10-16T05:31:05;100205.63;;;15.20;100.00
13348;BME280;6743;49.934;9.138;2022-10-16T05:33:31;100201.09;;;15.21;100.00
13348;BME280;6743;49.934;9.138;2022-10-16T05:36:00;100208.28;;;15.20;100.00
13348;BME280;6743;49.934;9.138;2022-10-16T05:38:26;100199.00;;;15.16;100.00
13348;BME280;6743;49.934;9.138;2022-10-16T05:40:53;100209.91;;;15.21;100.00
13348;BME280;6743;49.934;9.138;2022-10-16T05:43:19;100198.44;;;15.21;100.00
13348;BME280;6743;49.934;9.138;2022-10-16T05:45:53;100194.09;;;15.20;100.00
13348;BME280;6743;49.934;9.138;2022-10-16T05:48:19;100206.22;;;15.22;100.00
13348;BME280;6743;49.934;9.138;2022-10-16T05:50:45;100203.75;;;15.21;100.00
13348;BME280;6743;49.934;9.138;2022-10-16T05:53:11;100209.13;;;15.21;100.00
13348;BME280;6743;49.934;9.138;2022-10-16T05:55:37;100208.28;;;15.20;100.00
13348;BME280;6743;49.934;9.138;2022-10-16T05:58:03;100220.59;;;15.21;100.00
13348;BME280;6743;49.934;9.138;2022-10-16T06:00:29;100212.59;;;15.21;100.00
13348;BME280;6743;49.934;9.138;2022-10-16T06:02:55;100220.59;;;15.21;100.00
13348;BME280;6743;49.934;9.138;2022-10-16T06:05:21;100222.47;;;15.21;100.00
13348;BME280;6743;49.934;9.138;2022-10-16T06:07:47;100233.16;;;15.21;100.00
13348;BME280;6743;49.934;9.138;2022-10-16T06:10:13;100235.00;;;15.20;100.00
13348;BME280;6743;49.934;9.138;2022-10-16T06:12:39;100231.50;;;15.20;100.00
13348;BME280;6743;49.934;9.138;2022-10-16T06:15:05;100242.19;;;15.20;100.00
13348;BME280;6743;49.934;9.138;2022-10-16T06:17:32;100238.50;;;15.21;100.00
13348;BME280;6743;49.934;9.138;2022-10-16T06:19:58;100247.31;;;15.21;100.00
13348;BME280;6743;49.934;9.138;2022-10-16T06:22:24;100252.66;;;15.21;100.00
13348;BME280;6743;49.934;9.138;2022-10-16T06:24:50;100258.22;;;15.20;100.00
13348;BME280;6743;49.934;9.138;2022-10-16T06:27:16;100259.06;;;15.20;100.00
13348;BME280;6743;49.934;9.138;2022-10-16T06:29:42;100256.56;;;15.19;100.00
13348;BME280;6743;49.934;9.138;2022-10-16T06:32:10;100262.75;;;15.19;100.00
13348;BME280;6743;49.934;9.138;2022-10-16T06:34:36;100274.28;;;15.20;100.00
13348;BME280;6743;49.934;9.138;2022-10-16T06:37:02;100268.09;;;15.19;100.00
13348;BME280;6743;49.934;9.138;2022-10-16T06:39:28;100279.59;;;15.20;100.00
13348;BME280;6743;49.934;9.138;2022-10-16T06:41:54;100263.75;;;15.18;100.00
13348;BME280;6743;49.934;9.138;2022-10-16T06:44:20;100276.72;;;15.21;100.00
13348;BME280;6743;49.934;9.138;2022-10-16T06:46:46;100282.88;;;15.22;100.00
13348;BME280;6743;49.934;9.138;2022-10-16T06:49:12;100278.38;;;15.22;100.00
13348;BME280;6743;49.934;9.138;2022-10-16T06:51:39;100280.03;;;15.23;100.00
13348;BME280;6743;49.934;9.138;2022-10-16T06:54:06;100271.84;;;15.25;100.00
13348;BME280;6743;49.934;9.138;2022-10-16T06:56:33;100273.28;;;15.27;100.00
13348;BME280;6743;49.934;9.138;2022-10-16T06:58:59;100267.50;;;15.24;100.00
13348;BME280;6743;49.934;9.138;2022-10-16T07:01:26;100285.44;;;15.30;100.00
13348;BME280;6743;49.934;9.138;2022-10-16T07:03:52;100283.41;;;15.32;100.00
13348;BME280;6743;49.934;9.138;2022-10-16T07:06:21;100270.66;;;15.34;100.00
13348;BME280;6743;49.934;9.138;2022-10-16T07:08:48;100268.59;;;15.36;100.00
13348;BME280;6743;49.934;9.138;2022-10-16T07:11:15;100269.25;;;15.38;100.00
13348;BME280;6743;49.934;9.138;2022-10-16T07:13:42;100271.72;;;15.40;100.00
13348;BME280;6743;49.934;9.138;2022-10-16T07:16:10;100270.50;;;15.42;100.00
13348;BME280;6743;49.934;9.138;2022-10-16T07:18:37;100278.13;;;15.45;100.00
13348;BME280;6743;49.934;9.138;2022-10-16T07:21:05;100285.31;;;15.45;100.00
13348;BME280;6743;49.934;9.138;2022-10-16T07:23:31;100287.22;;;15.51;100.00
13348;BME280;6743;49.934;9.138;2022-10-16T07:25:58;100296.75;;;15.53;100.00
13348;BME280;6743;49.934;9.138;2022-10-16T07:28:24;100304.56;;;15.55;100.00
13348;BME280;6743;49.934;9.138;2022-10-16T07:30:50;100311.75;;;15.54;100.00
13348;BME280;6743;49.934;9.138;2022-10-16T07:33:16;100320.62;;;15.55;100.00
13348;BME280;6743;49.934;9.138;2022-10-16T07:35:48;100312.59;;;15.55;100.00
13348;BME280;6743;49.934;9.138;2022-10-16T07:38:14;100307.25;;;15.55;100.00
13348;BME280;6743;49.934;9.138;2022-10-16T07:40:40;100315.03;;;15.56;100.00
13348;BME280;6743;49.934;9.138;2022-10-16T07:43:06;100309.50;;;15.58;100.00
13348;BME280;6743;49.934;9.138;2022-10-16T07:45:32;100301.28;;;15.59;100.00
13348;BME280;6743;49.934;9.138;2022-10-16T07:47:58;100307.06;;;15.63;100.00
13348;BME280;6743;49.934;9.138;2022-10-16T07:50:24;100312.03;;;15.66;100.00
13348;BME280;6743;49.934;9.138;2022-10-16T07:52:50;100324.63;;;15.72;100.00
13348;BME280;6743;49.934;9.138;2022-10-16T07:55:17;100323.41;;;15.74;100.00
13348;BME280;6743;49.934;9.138;2022-10-16T07:57:43;100320.53;;;15.76;100.00
13348;BME280;6743;49.934;9.138;2022-10-16T08:00:11;100324.84;;;15.77;100.00
13348;BME280;6743;49.934;9.138;2022-10-16T08:02:39;100329.81;;;15.80;100.00
13348;BME280;6743;49.934;9.138;2022-10-16T08:05:06;100332.50;;;15.80;100.00
13348;BME280;6743;49.934;9.138;2022-10-16T08:07:32;100348.53;;;15.80;100.00
13348;BME280;6743;49.934;9.138;2022-10-16T08:09:58;100337.84;;;15.80;100.00
13348;BME280;6743;49.934;9.138;2022-10-16T08:12:24;100348.53;;;15.80;100.00
13348;BME280;6743;49.934;9.138;2022-10-16T08:14:50;100348.53;;;15.80;100.00
13348;BME280;6743;49.934;9.138;2022-10-16T08:17:17;100347.91;;;15.78;100.00
13348;BME280;6743;49.934;9.138;2022-10-16T08:19:44;100348.72;;;15.79;100.00
13348;BME280;6743;49.934;9.138;2022-10-16T08:22:11;100355.75;;;15.80;100.00
13348;BME280;6743;49.934;9.138;2022-10-16T08:24:37;100348.34;;;15.82;100.00
13348;BME280;6743;49.934;9.138;2022-10-16T08:27:03;100348.97;;;15.84;100.00
13348;BME280;6743;49.934;9.138;2022-10-16T08:29:29;100360.09;;;15.87;100.00
13348;BME280;6743;49.934;9.138;2022-10-16T08:31:55;100351.91;;;15.89;100.00
13348;BME280;6743;49.934;9.138;2022-10-16T08:34:22;100365.69;;;15.92;100.00
13348;BME280;6743;49.934;9.138;2022-10-16T08:36:48;100365.31;;;15.95;100.00
13348;BME280;6743;49.934;9.138;2022-10-16T08:39:14;100368.41;;;15.99;100.00
13348;BME280;6743;49.934;9.138;2022-10-16T08:42:14;100368.84;;;16.02;100.00
13348;BME280;6743;49.934;9.138;2022-10-16T08:47:45;100386.59;;;16.10;100.00
13348;BME280;6743;49.934;9.138;2022-10-16T08:50:20;100387.84;;;16.14;100.00
13348;BME280;6743;49.934;9.138;2022-10-16T08:52:47;100390.53;;;16.14;100.00
13348;BME280;6743;49.934;9.138;2022-10-16T08:55:24;100399.00;;;16.18;100.00
13348;BME280;6743;49.934;9.138;2022-10-16T08:57:54;100397.13;;;16.18;100.00
13348;BME280;6743;49.934;9.138;2022-10-16T09:00:20;100400.63;;;16.19;100.00
13348;BME280;6743;49.934;9.138;2022-10-16T09:02:53;100404.97;;;16.20;100.00
13348;BME280;6743;49.934;9.138;2022-10-16T09:05:29;100415.47;;;16.21;100.00
13348;BME280;6743;49.934;9.138;2022-10-16T09:08:04;100424.34;;;16.22;100.00
13348;BME280;6743;49.934;9.138;2022-10-16T09:10:39;100430.53;;;16.22;100.00
13348;BME280;6743;49.934;9.138;2022-10-16T09:13:17;100442.88;;;16.23;100.00
13348;BME280;6743;49.934;9.138;2022-10-16T09:15:49;100445.75;;;16.22;100.00
13348;BME280;6743;49.934;9.138;2022-10-16T09:18:21;100470.47;;;16.24;100.00
13348;BME280;6743;49.934;9.138;2022-10-16T09:20:53;100466.78;;;16.25;100.00
13348;BME280;6743;49.934;9.138;2022-10-16T09:23:26;100462.22;;;16.25;100.00
13348;BME280;6743;49.934;9.138;2022-10-16T09:25:53;100463.06;;;16.26;100.00
13348;BME280;6743;49.934;9.138;2022-10-16T09:28:19;100465.97;;;16.24;100.00
13348;BME280;6743;49.934;9.138;2022-10-16T09:30:46;100470.47;;;16.24;100.00
13348;BME280;6743;49.934;9.138;2022-10-16T09:33:14;100468.00;;;16.22;100.00
13348;BME280;6743;49.934;9.138;2022-10-16T09:35:42;100472.53;;;16.22;100.00
13348;BME280;6743;49.934;9.138;2022-10-16T09:38:20;100467.16;;;16.22;100.00
13348;BME280;6743;49.934;9.138;2022-10-16T09:40:47;100459.31;;;16.20;100.00
13348;BME280;6743;49.934;9.138;2022-10-16T09:43:20;100460.16;;;16.21;100.00
13348;BME280;6743;49.934;9.138;2022-10-16T09:45:56;100468.00;;;16.22;100.00
13348;BME280;6743;49.934;9.138;2022-10-16T09:48:22;100470.47;;;16.24;100.00
13348;BME280;6743;49.934;9.138;2022-10-16T09:50:58;100461.44;;;16.25;100.00
13348;BME280;6743;49.934;9.138;2022-10-16T09:53:26;100462.03;;;16.27;100.00
13348;BME280;6743;49.934;9.138;2022-10-16T09:55:53;100465.53;;;16.27;100.00
13348;BME280;6743;49.934;9.138;2022-10-16T09:58:21;100471.72;;;16.28;100.00
13348;BME280;6743;49.934;9.138;2022-10-16T10:00:52;100468.88;;;16.29;100.00
13348;BME280;6743;49.934;9.138;2022-10-16T10:03:32;100475.47;;;16.33;100.00
13348;BME280;6743;49.934;9.138;2022-10-16T10:06:00;100476.53;;;16.39;100.00
13348;BME280;6743;49.934;9.138;2022-10-16T10:08:27;100463.59;;;16.42;100.00
13348;BME280;6743;49.934;9.138;2022-10-16T10:10:53;100468.97;;;16.49;100.00
13348;BME280;6743;49.934;9.138;2022-10-16T10:13:22;100458.47;;;16.54;100.00
13348;BME280;6743;49.934;9.138;2022-10-16T10:15:48;100465.13;;;16.58;100.00
13348;BME280;6743;49.934;9.138;2022-10-16T10:18:16;100461.88;;;16.63;100.00
13348;BME280;6743;49.934;9.138;2022-10-16T10:20:44;100459.41;;;16.68;100.00
13348;BME280;6743;49.934;9.138;2022-10-16T10:23:20;100470.97;;;16.75;100.00
13348;BME280;6743;49.934;9.138;2022-10-16T10:25:53;100473.50;;;16.83;100.00
13348;BME280;6743;49.934;9.138;2022-10-16T10:28:42;100472.09;;;16.87;100.00
13348;BME280;6743;49.934;9.138;2022-10-16T10:31:18;100466.94;;;16.92;100.00
13348;BME280;6743;49.934;9.138;2022-10-16T10:33:49;100467.97;;;16.98;100.00
13348;BME280;6743;49.934;9.138;2022-10-16T10:36:27;100468.41;;;17.01;100.00
13348;BME280;6743;49.934;9.138;2022-10-16T10:38:57;100473.56;;;17.03;100.00
13348;BME280;6743;49.934;9.138;2022-10-16T10:44:30;100465.75;;;17.08;100.00
13348;BME280;6743;49.934;9.138;2022-10-16T10:47:06;100466.59;;;17.15;100.00
13348;BME280;6743;49.934;9.138;2022-10-16T10:49:44;100467.41;;;17.22;100.00
13348;BME280;6743;49.934;9.138;2022-10-16T10:52:26;100466.63;;;17.28;100.00
13348;BME280;6743;49.934;9.138;2022-10-16T10:55:06;100466.84;;;17.33;100.00
13348;BME280;6743;49.934;9.138;2022-10-16T10:57:42;100462.91;;;17.36;100.00
13348;BME280;6743;49.934;9.138;2022-10-16T11:00:20;100468.91;;;17.38;100.00
13348;BME280;6743;49.934;9.138;2022-10-16T11:02:52;100471.59;;;17.38;100.00
13348;BME280;6743;49.934;9.138;2022-10-16T11:05:31;100472.84;;;17.42;100.00
13348;BME280;6743;49.934;9.138;2022-10-16T11:08:00;100480.66;;;17.43;100.00
13348;BME280;6743;49.934;9.138;2022-10-16T11:10:42;100480.47;;;17.45;100.00
13348;BME280;6743;49.934;9.138;2022-10-16T11:13:20;100467.91;;;17.52;100.00
13348;BME280;6743;49.934;9.138;2022-10-16T11:15:52;100466.25;;;17.57;100.00
13348;BME280;6743;49.934;9.138;2022-10-16T11:18:22;100475.38;;;17.63;100.00
13348;BME280;6743;49.934;9.138;2022-10-16T11:20:54;100464.44;;;17.64;100.00
13348;BME280;6743;49.934;9.138;2022-10-16T11:23:25;100475.59;;;17.68;100.00
13348;BME280;6743;49.934;9.138;2022-10-16T11:25:54;100479.31;;;17.74;100.00
13348;BME280;6743;49.934;9.138;2022-10-16T11:28:27;100477.44;;;17.81;100.00
13348;BME280;6743;49.934;9.138;2022-10-16T11:31:00;100475.59;;;17.88;100.00
13348;BME280;6743;49.934;9.138;2022-10-16T11:33:31;100470.84;;;17.96;100.00
13348;BME280;6743;49.934;9.138;2022-10-16T11:36:06;100463.81;;;18.02;100.00
13348;BME280;6743;49.934;9.138;2022-10-16T11:38:38;100480.75;;;18.09;100.00
13348;BME280;6743;49.934;9.138;2022-10-16T11:41:15;100498.91;;;18.14;100.00
13348;BME280;6743;49.934;9.138;2022-10-16T11:43:48;100517.09;;;18.18;100.00
13348;BME280;6743;49.934;9.138;2022-10-16T11:46:20;100538.34;;;18.20;100.00
13348;BME280;6743;49.934;9.138;2022-10-16T11:48:52;100542.69;;;18.21;100.00
13348;BME280;6743;49.934;9.138;2022-10-16T11:51:26;100544.97;;;18.17;100.00
13348;BME280;6743;49.934;9.138;2022-10-16T11:54:00;100543.13;;;18.11;100.00
13348;BME280;6743;49.934;9.138;2022-10-16T11:56:30;100565.44;;;18.18;100.00
13348;BME280;6743;49.934;9.138;2022-10-16T11:59:01;100560.84;;;18.19;100.00
13348;BME280;6743;49.934;9.138;2022-10-16T12:01:33;100564.16;;;18.27;100.00
13348;BME280;6743;49.934;9.138;2022-10-16T12:04:17;100575.34;;;18.31;100.00
13348;BME280;6743;49.934;9.138;2022-10-16T12:06:48;100577.38;;;18.35;100.00
13348;BME280;6743;49.934;9.138;2022-10-16T12:09:21;100578.63;;;18.39;100.00
13348;BME280;6743;49.934;9.138;2022-10-16T12:11:48;100579.03;;;18.43;100.00
13348;BME280;6743;49.934;9.138;2022-10-16T12:14:22;100571.59;;;18.45;100.00
13348;BME280;6743;49.934;9.138;2022-10-16T12:17:00;100578.19;;;18.49;100.00
13348;BME280;6743;49.934;9.138;2022-10-16T12:19:28;100570.56;;;18.53;100.00
13348;BME280;6743;49.934;9.138;2022-10-16T12:21:56;100569.13;;;18.57;100.00
13348;BME280;6743;49.934;9.138;2022-10-16T12:24:34;100567.66;;;18.61;100.00
13348;BME280;6743;49.934;9.138;2022-10-16T12:27:02;100572.00;;;18.62;100.00
13348;BME280;6743;49.934;9.138;2022-10-16T12:29:33;100579.22;;;18.68;100.00
13348;BME280;6743;49.934;9.138;2022-10-16T12:32:02;100581.09;;;18.74;100.00
13348;BME280;6743;49.934;9.138;2022-10-16T12:34:34;100573.63;;;18.76;100.00
13348;BME280;6743;49.934;9.138;2022-10-16T12:37:13;100593.69;;;18.80;100.00
13348;BME280;6743;49.934;9.138;2022-10-16T12:39:41;100593.06;;;18.78;100.00
13348;BME280;6743;49.934;9.138;2022-10-16T12:42:21;100597.22;;;18.80;100.00
13348;BME280;6743;49.934;9.138;2022-10-16T12:44:49;100593.06;;;18.84;100.00
13348;BME280;6743;49.934;9.138;2022-10-16T12:47:23;100596.37;;;18.86;100.00
13348;BME280;6743;49.934;9.138;2022-10-16T12:49:51;100605.25;;;18.94;100.00
13348;BME280;6743;49.934;9.138;2022-10-16T12:52:26;100596.56;;;18.92;100.00
13348;BME280;6743;49.934;9.138;2022-10-16T12:54:56;100610.41;;;18.95;100.00
13348;BME280;6743;49.934;9.138;2022-10-16T12:57:41;100606.66;;;18.96;100.00
13348;BME280;6743;49.934;9.138;2022-10-16T13:00:21;100609.59;;;18.95;100.00
13348;BME280;6743;49.934;9.138;2022-10-16T13:03:29;100614.34;;;18.93;100.00
13348;BME280;6743;49.934;9.138;2022-10-16T13:06:05;100618.69;;;18.94;100.00
13348;BME280;6743;49.934;9.138;2022-10-16T13:08:52;100613.53;;;18.92;100.00
13348;BME280;6743;49.934;9.138;2022-10-16T13:11:37;100614.56;;;18.91;100.00